createdAt,value
2023-03-15T00:00:31.711Z,93.10
2023-03-15T00:04:55.536Z,93.10
2023-03-15T00:09:22.313Z,93.00
2023-03-15T00:13:48.291Z,92.90
2023-03-15T00:18:12.078Z,92.70
2023-03-15T00:22:36.061Z,92.60
2023-03-15T00:27:01.441Z,92.40
2023-03-15T00:31:26.942Z,92.50
2023-03-15T00:35:53.743Z,92.80
2023-03-15T00:40:18.199Z,93.30
2023-03-15T00:44:44.087Z,93.70
2023-03-15T00:49:08.481Z,94.10
2023-03-15T00:53:32.367Z,94.40
2023-03-15T00:57:56.565Z,94.60
2023-03-15T01:02:22.328Z,94.50
2023-03-15T01:06:46.385Z,94.40
2023-03-15T01:11:13.432Z,94.60
2023-03-15T01:15:37.523Z,94.10
2023-03-15T01:20:05.535Z,94.10
2023-03-15T01:24:29.477Z,94.00
2023-03-15T01:28:53.661Z,93.90
2023-03-15T01:33:17.639Z,93.50
2023-03-15T01:37:43.126Z,93.20
2023-03-15T01:42:07.940Z,92.80
2023-03-15T01:46:34.405Z,92.40
2023-03-15T01:51:17.894Z,92.00
2023-03-15T01:55:43.409Z,91.60
2023-03-15T02:00:14.051Z,91.30
2023-03-15T02:04:53.351Z,91.10
2023-03-15T02:09:22.182Z,90.90
2023-03-15T02:13:49.588Z,90.90
2023-03-15T02:18:13.935Z,90.90
2023-03-15T02:22:48.509Z,91.00
2023-03-15T02:27:13.062Z,91.10
2023-03-15T02:31:40.692Z,91.30
2023-03-15T02:36:11.597Z,91.40
2023-03-15T02:40:35.954Z,91.50
2023-03-15T02:45:00.016Z,91.60
2023-03-15T02:49:31.245Z,91.70
2023-03-15T02:53:55.345Z,92.20
2023-03-15T02:58:19.189Z,92.00
2023-03-15T03:02:44.283Z,92.10
2023-03-15T03:07:09.816Z,92.20
2023-03-15T03:11:43.936Z,92.20
2023-03-15T03:16:09.063Z,92.30
2023-03-15T03:20:33.613Z,92.40
2023-03-15T03:24:59.513Z,92.60
2023-03-15T03:29:23.728Z,92.90
2023-03-15T03:33:47.832Z,93.10
2023-03-15T03:38:12.433Z,93.30
2023-03-15T03:42:41.136Z,93.50
2023-03-15T03:47:05.787Z,93.70
2023-03-15T03:51:29.828Z,93.90
2023-03-15T03:55:54.811Z,94.20
2023-03-15T04:00:22.632Z,94.40
2023-03-15T04:04:50.358Z,94.70
2023-03-15T04:09:18.064Z,95.00
2023-03-15T04:13:45.499Z,95.20
2023-03-15T04:18:10.884Z,95.30
2023-03-15T04:22:37.946Z,95.50
2023-03-15T04:27:28.340Z,95.50
2023-03-15T04:32:14.008Z,95.60
2023-03-15T04:36:58.444Z,95.70
2023-03-15T04:41:41.366Z,95.70
2023-03-15T04:46:18.275Z,95.80
2023-03-15T04:51:02.712Z,95.90
2023-03-15T04:55:39.952Z,96.00
2023-03-15T05:00:20.303Z,96.20
2023-03-15T05:05:02.604Z,96.30
2023-03-15T05:09:48.682Z,96.50
2023-03-15T05:14:43.466Z,96.60
2023-03-15T05:19:26.376Z,97.00
2023-03-15T05:23:59.999Z,97.50
2023-03-15T05:28:47.400Z,97.70
2023-03-15T05:33:31.607Z,98.10
2023-03-15T05:38:15.012Z,98.60
2023-03-15T05:43:00.333Z,98.80
2023-03-15T05:47:39.882Z,99.20
2023-03-15T05:52:14.620Z,99.00
2023-03-15T05:56:55.233Z,98.30
2023-03-15T06:01:21.862Z,97.40
2023-03-15T06:06:06.140Z,96.70
2023-03-15T06:10:37.680Z,96.50
2023-03-15T06:15:05.924Z,96.50
2023-03-15T06:19:31.017Z,96.60
2023-03-15T06:23:55.169Z,96.90
2023-03-15T06:28:21.728Z,96.70
2023-03-15T06:32:51.288Z,95.90
2023-03-15T06:37:25.624Z,95.50
2023-03-15T06:41:57.430Z,96.00
2023-03-15T06:46:25.468Z,96.90
2023-03-15T06:50:49.862Z,98.00
2023-03-15T06:55:18.170Z,98.80
2023-03-15T06:59:43.022Z,99.70
2023-03-15T07:04:09.705Z,99.90
2023-03-15T07:08:33.818Z,99.90
2023-03-15T07:12:57.993Z,99.90
2023-03-15T07:17:21.972Z,99.90
2023-03-15T07:21:47.812Z,99.90
2023-03-15T07:26:12.277Z,99.90
2023-03-15T07:30:36.059Z,99.90
2023-03-15T07:35:00.775Z,99.90
2023-03-15T07:39:26.929Z,99.90
2023-03-15T07:43:50.724Z,99.90
2023-03-15T07:48:15.589Z,99.90
2023-03-15T07:52:39.437Z,99.90
2023-03-15T07:57:05.432Z,99.90
2023-03-15T08:01:29.369Z,99.90
2023-03-15T08:05:53.678Z,99.90
2023-03-15T08:10:18.685Z,99.90
2023-03-15T08:14:44.198Z,99.90
2023-03-15T08:19:09.234Z,99.90
2023-03-15T08:23:33.221Z,99.90
2023-03-15T08:27:57.154Z,99.90
2023-03-15T08:32:22.655Z,99.90
2023-03-15T08:36:48.477Z,99.90
2023-03-15T08:41:12.533Z,99.90
2023-03-15T08:45:51.088Z,99.90
2023-03-15T08:50:21.831Z,99.90
2023-03-15T08:54:45.854Z,99.90
2023-03-15T08:59:11.411Z,99.90
2023-03-15T09:03:37.231Z,99.90
2023-03-15T09:08:03.542Z,99.90
2023-03-15T09:12:28.515Z,99.90
2023-03-15T09:16:52.697Z,99.90
2023-03-15T09:21:17.407Z,99.90
2023-03-15T09:25:43.082Z,99.90
2023-03-15T09:30:08.213Z,98.90
2023-03-15T09:34:39.833Z,96.90
2023-03-15T09:39:06.569Z,95.30
2023-03-15T09:43:49.986Z,93.00
2023-03-15T09:48:21.033Z,90.10
2023-03-15T09:52:47.527Z,89.50
2023-03-15T09:57:16.641Z,90.20
2023-03-15T10:01:43.721Z,86.00
2023-03-15T10:06:14.553Z,83.20
2023-03-15T10:10:46.401Z,77.70
2023-03-15T10:15:25.034Z,77.80
2023-03-15T10:19:52.579Z,76.90
2023-03-15T10:24:21.047Z,77.40
2023-03-15T10:28:45.988Z,77.80
2023-03-15T10:33:18.323Z,76.90
2023-03-15T10:37:44.677Z,75.10
2023-03-15T10:42:09.455Z,70.70
2023-03-15T10:46:35.540Z,71.50
2023-03-15T10:51:05.447Z,72.00
2023-03-15T10:55:34.835Z,68.00
2023-03-15T11:00:06.649Z,69.00
2023-03-15T11:04:33.821Z,70.80
2023-03-15T11:09:14.731Z,71.60
2023-03-15T11:13:41.724Z,70.40
2023-03-15T11:18:09.461Z,72.40
2023-03-15T11:22:34.345Z,72.80
2023-03-15T11:27:03.561Z,71.00
2023-03-15T11:31:30.248Z,72.00
2023-03-15T11:36:03.978Z,74.60
2023-03-15T11:40:34.678Z,76.60
2023-03-15T11:45:03.611Z,80.60
2023-03-15T11:49:38.188Z,79.50
2023-03-15T11:54:09.149Z,79.80
2023-03-15T11:58:35.787Z,83.70
2023-03-15T12:03:02.813Z,83.60
2023-03-15T12:07:38.220Z,80.70
2023-03-15T12:12:05.107Z,78.10
2023-03-15T12:16:32.372Z,76.30
2023-03-15T12:21:19.762Z,76.30
2023-03-15T12:25:55.587Z,75.70
2023-03-15T12:30:24.120Z,77.40
2023-03-15T12:34:51.243Z,77.60
2023-03-15T12:39:39.726Z,76.30
2023-03-15T12:44:21.957Z,75.70
2023-03-15T12:49:07.165Z,75.30
2023-03-15T12:53:55.711Z,76.60
2023-03-15T12:58:23.691Z,78.00
2023-03-15T13:02:52.044Z,77.60
2023-03-15T13:07:25.736Z,78.00
2023-03-15T13:11:58.359Z,77.70
2023-03-15T13:16:31.033Z,76.50
2023-03-15T13:21:12.699Z,77.90
2023-03-15T13:25:46.044Z,78.80
2023-03-15T13:30:35.972Z,77.30
2023-03-15T13:34:54.424Z,77.70
2023-03-15T13:39:24.421Z,78.20
2023-03-15T13:43:50.597Z,78.20
2023-03-15T13:48:14.832Z,77.40
2023-03-15T13:52:38.763Z,78.70
2023-03-15T13:57:07.450Z,79.60
2023-03-15T14:01:35.538Z,80.70
2023-03-15T14:06:00.937Z,81.50
2023-03-15T14:10:32.165Z,81.70
2023-03-15T14:15:00.406Z,80.00
2023-03-15T14:19:26.611Z,79.30
2023-03-15T14:23:52.069Z,80.50
2023-03-15T14:28:18.613Z,82.30
2023-03-15T14:32:54.204Z,81.40
2023-03-15T14:37:31.851Z,83.30
2023-03-15T14:41:56.421Z,83.10
2023-03-15T14:46:21.940Z,82.00
2023-03-15T14:50:50.515Z,82.10
2023-03-15T14:55:18.032Z,82.90
2023-03-15T14:59:42.019Z,83.80
2023-03-15T15:04:06.434Z,83.90
2023-03-15T15:08:33.703Z,83.60
2023-03-15T15:13:06.019Z,83.90
2023-03-15T15:17:31.422Z,83.00
2023-03-15T15:21:56.477Z,84.40
2023-03-15T15:26:26.278Z,86.50
2023-03-15T15:30:53.280Z,86.30
2023-03-15T15:35:19.074Z,88.30
2023-03-15T15:39:43.004Z,90.10
2023-03-15T15:44:15.588Z,90.80
2023-03-15T15:48:40.371Z,91.30
2023-03-15T15:53:07.202Z,92.00
2023-03-15T15:57:31.212Z,92.80
2023-03-15T16:02:02.226Z,93.20
2023-03-15T16:06:26.648Z,93.60
2023-03-15T16:10:50.482Z,94.10
2023-03-15T16:15:15.639Z,94.60
2023-03-15T16:19:40.957Z,94.90
2023-03-15T16:24:08.975Z,95.30
2023-03-15T16:28:33.314Z,96.00
2023-03-15T16:32:58.710Z,96.50
2023-03-15T16:37:26.371Z,97.00
2023-03-15T16:41:52.272Z,97.60
2023-03-15T16:46:17.516Z,98.10
2023-03-15T16:50:43.430Z,98.50
2023-03-15T16:55:12.214Z,98.90
2023-03-15T16:59:36.688Z,99.40
2023-03-15T17:04:01.275Z,99.90
2023-03-15T17:08:25.696Z,99.90
2023-03-15T17:12:52.683Z,99.90
2023-03-15T17:17:16.894Z,99.90
2023-03-15T17:21:41.570Z,99.90
2023-03-15T17:26:05.554Z,99.90
2023-03-15T17:30:31.968Z,99.90
2023-03-15T17:34:59.025Z,99.90
2023-03-15T17:39:23.280Z,99.90
2023-03-15T17:43:47.595Z,99.90
2023-03-15T17:48:13.004Z,99.90
2023-03-15T17:52:37.671Z,99.90
2023-03-15T17:57:01.936Z,99.90
2023-03-15T18:01:28.235Z,99.90
2023-03-15T18:05:53.548Z,99.90
2023-03-15T18:10:20.768Z,99.90
2023-03-15T18:14:44.726Z,99.90
2023-03-15T18:19:08.702Z,99.90
2023-03-15T18:23:33.955Z,99.90
2023-03-15T18:27:58.021Z,99.90
2023-03-15T18:32:22.048Z,99.90
2023-03-15T18:36:46.365Z,99.90
2023-03-15T18:41:20.325Z,99.90
2023-03-15T18:45:44.601Z,99.90
2023-03-15T18:50:10.906Z,99.90
2023-03-15T18:54:35.341Z,99.90
2023-03-15T18:59:01.230Z,99.90
2023-03-15T19:03:25.282Z,99.90
2023-03-15T19:07:49.613Z,99.90
2023-03-15T19:12:13.505Z,99.90
2023-03-15T19:16:38.791Z,99.90
2023-03-15T19:21:03.860Z,99.90
2023-03-15T19:25:28.251Z,99.90
2023-03-15T19:29:52.205Z,99.90
2023-03-15T19:34:17.396Z,99.90
2023-03-15T19:38:41.415Z,99.90
2023-03-15T19:43:05.380Z,99.90
2023-03-15T19:47:29.367Z,99.90
2023-03-15T19:51:54.726Z,99.90
2023-03-15T19:56:18.750Z,99.90
2023-03-15T20:00:42.744Z,99.90
2023-03-15T20:05:08.785Z,99.90
2023-03-15T20:09:38.083Z,99.90
2023-03-15T20:14:02.217Z,99.90
2023-03-15T20:18:26.125Z,99.90
2023-03-15T20:22:50.346Z,99.90
2023-03-15T20:27:15.609Z,99.90
2023-03-15T20:31:39.816Z,99.90
2023-03-15T20:36:04.274Z,99.90
2023-03-15T20:40:28.162Z,99.90
2023-03-15T20:44:53.925Z,99.90
2023-03-15T20:49:17.913Z,99.90
2023-03-15T20:53:41.986Z,99.90
2023-03-15T20:58:06.360Z,99.90
2023-03-15T21:02:31.803Z,99.90
2023-03-15T21:06:55.881Z,99.90
2023-03-15T21:11:19.719Z,99.90
2023-03-15T21:15:45.958Z,99.90
2023-03-15T21:20:15.433Z,99.90
2023-03-15T21:24:52.915Z,99.90
2023-03-15T21:29:18.751Z,99.90
2023-03-15T21:33:42.894Z,99.90
2023-03-15T21:38:08.396Z,99.90
2023-03-15T21:42:33.304Z,99.90
2023-03-15T21:46:57.756Z,99.90
2023-03-15T21:51:22.297Z,99.90
2023-03-15T21:55:48.168Z,99.90
2023-03-15T22:00:16.607Z,99.90
2023-03-15T22:04:42.179Z,99.90
2023-03-15T22:09:06.158Z,99.90
2023-03-15T22:13:31.737Z,99.90
2023-03-15T22:17:55.719Z,99.90
2023-03-15T22:22:20.364Z,99.90
2023-03-15T22:26:44.770Z,99.90
2023-03-15T22:31:12.265Z,99.90
2023-03-15T22:35:36.393Z,99.90
2023-03-15T22:40:00.558Z,99.90
2023-03-15T22:44:24.675Z,99.90
2023-03-15T22:48:50.019Z,99.90
2023-03-15T22:53:13.859Z,99.90
2023-03-15T22:57:38.051Z,99.90
2023-03-15T23:02:02.201Z,99.90
2023-03-15T23:06:27.462Z,99.90
2023-03-15T23:10:52.155Z,99.90
2023-03-15T23:15:16.027Z,99.90
2023-03-15T23:19:40.546Z,99.90
2023-03-15T23:24:07.116Z,99.90
2023-03-15T23:28:31.097Z,99.90
2023-03-15T23:32:58.914Z,99.90
2023-03-15T23:37:23.469Z,99.90
2023-03-15T23:41:48.910Z,99.90
2023-03-15T23:46:08.094Z,99.90
2023-03-15T23:50:32.412Z,99.90
2023-03-15T23:54:58.419Z,99.90
2023-03-15T23:59:29.075Z,99.90
